Springport, Michigan
Current Conditions -  °F | °C
As of 7:14 AM on Saturday 25 Oct 2014 (Local Time) from KFPK Reporting Station
Broken Clouds Broken Clouds  
Wind Chill: 54°   Ceiling: 3900
Heat Index: 54°   Visibility: 7mi
Dew Point: 49°   Wind: 6mph
Humidity: 84%   Direction: 220°SW
Pressure: 29.84"   Gusts: NA
Location:  42.38°N, 84.7°W
Report Text: KFPK 251114Z AUTO 22005KT 7SM BKN039 12/09 A2984 RMK AO2 T01210094
Loading
Personal Weather Stations






























Interactive Weather Map
Tropical Storm Tracking
New forecast layout! Learn more

10-Day Weather Forecast

Advertisements
Track Severe Weather on mobile